createdAt,value
2023-02-05T00:00:55.301Z,13.90
2023-02-05T00:04:13.812Z,14.10
2023-02-05T00:07:17.062Z,11.30
2023-02-05T00:10:20.310Z,12.00
2023-02-05T00:13:23.818Z,8.40
2023-02-05T00:16:27.290Z,12.30
2023-02-05T00:19:30.676Z,14.00
2023-02-05T00:22:34.042Z,15.80
2023-02-05T00:25:37.527Z,20.20
2023-02-05T00:28:42.079Z,26.30
2023-02-05T00:31:47.711Z,17.00
2023-02-05T00:34:51.232Z,16.60
2023-02-05T00:37:56.376Z,14.10
2023-02-05T00:41:00.278Z,8.30
2023-02-05T00:44:04.592Z,10.10
2023-02-05T00:47:07.995Z,12.10
2023-02-05T00:50:11.416Z,18.90
2023-02-05T00:53:14.642Z,16.10
2023-02-05T00:56:18.091Z,16.50
2023-02-05T00:59:23.723Z,18.00
2023-02-05T01:02:27.333Z,21.40
2023-02-05T01:05:30.875Z,23.50
2023-02-05T01:08:34.652Z,16.00
2023-02-05T01:11:38.166Z,14.70
2023-02-05T01:14:42.926Z,20.30
2023-02-05T01:17:46.644Z,18.60
2023-02-05T01:20:50.115Z,13.80
2023-02-05T01:23:54.968Z,15.10
2023-02-05T01:26:58.879Z,16.30
2023-02-05T01:30:02.773Z,17.60
2023-02-05T01:33:06.263Z,16.80
2023-02-05T01:36:09.822Z,14.40
2023-02-05T01:39:13.606Z,15.80
2023-02-05T01:42:24.146Z,18.80
2023-02-05T01:45:32.626Z,16.90
2023-02-05T01:48:42.292Z,13.80
2023-02-05T01:51:48.126Z,14.70
2023-02-05T01:54:53.554Z,15.50
2023-02-05T01:57:57.888Z,12.20
2023-02-05T02:01:01.302Z,15.20
2023-02-05T02:04:06.031Z,13.20
2023-02-05T02:07:12.667Z,11.90
2023-02-05T02:10:19.344Z,11.50
2023-02-05T02:13:24.514Z,11.20
2023-02-05T02:16:30.215Z,11.70
2023-02-05T02:20:01.545Z,10.20
2023-02-05T02:23:50.602Z,14.50
2023-02-05T02:27:17.686Z,15.40
2023-02-05T02:30:30.238Z,14.60
2023-02-05T02:33:38.423Z,11.90
2023-02-05T02:36:55.051Z,12.70
2023-02-05T02:40:06.635Z,16.10
2023-02-05T02:43:20.838Z,12.60
2023-02-05T02:46:29.936Z,12.50
2023-02-05T02:49:57.599Z,10.40
2023-02-05T02:53:38.369Z,11.60
2023-02-05T02:56:42.316Z,9.60
2023-02-05T02:59:48.481Z,9.60
2023-02-05T03:02:56.129Z,9.40
2023-02-05T03:06:01.032Z,8.80
2023-02-05T03:09:07.372Z,8.00
2023-02-05T03:12:10.645Z,8.10
2023-02-05T03:15:14.448Z,10.80
2023-02-05T03:18:19.819Z,12.50
2023-02-05T03:21:30.781Z,14.90
2023-02-05T03:24:33.994Z,16.40
2023-02-05T03:27:37.891Z,16.30
2023-02-05T03:31:13.415Z,12.70
2023-02-05T03:34:40.794Z,15.00
2023-02-05T03:38:10.565Z,17.40
2023-02-05T03:41:22.861Z,14.50
2023-02-05T03:44:46.819Z,15.20
2023-02-05T03:48:22.486Z,14.70
2023-02-05T03:51:38.976Z,13.80
2023-02-05T03:55:08.886Z,17.80
2023-02-05T03:58:19.782Z,17.00
2023-02-05T04:01:24.913Z,16.10
2023-02-05T04:04:28.541Z,18.70
2023-02-05T04:07:32.224Z,15.70
2023-02-05T04:10:35.818Z,15.20
2023-02-05T04:13:39.347Z,19.20
2023-02-05T04:16:44.222Z,15.30
2023-02-05T04:19:48.560Z,15.60
2023-02-05T04:22:52.956Z,18.90
2023-02-05T04:25:56.638Z,15.80
2023-02-05T04:29:07.373Z,16.50
2023-02-05T04:32:16.147Z,18.20
2023-02-05T04:35:19.443Z,17.80
2023-02-05T04:38:23.029Z,15.50
2023-02-05T04:41:26.350Z,17.20
2023-02-05T04:44:29.630Z,16.90
2023-02-05T04:47:33.506Z,15.40
2023-02-05T04:50:39.116Z,15.40
2023-02-05T04:53:42.410Z,16.90
2023-02-05T04:56:46.945Z,18.10
2023-02-05T04:59:50.767Z,18.90
2023-02-05T05:02:53.928Z,14.00
2023-02-05T05:05:57.471Z,15.90
2023-02-05T05:09:00.744Z,14.40
2023-02-05T05:12:04.152Z,13.60
2023-02-05T05:15:08.606Z,15.60
2023-02-05T05:18:11.846Z,11.60
2023-02-05T05:21:15.160Z,11.30
2023-02-05T05:24:18.386Z,10.10
2023-02-05T05:27:23.204Z,11.70
2023-02-05T05:30:26.380Z,11.10
2023-02-05T05:33:29.594Z,10.90
2023-02-05T05:36:32.851Z,10.40
2023-02-05T05:39:54.692Z,11.80
2023-02-05T05:43:16.767Z,12.20
2023-02-05T05:46:25.450Z,11.60
2023-02-05T05:49:31.868Z,18.20
2023-02-05T05:52:35.228Z,22.50
2023-02-05T05:55:38.814Z,22.80
2023-02-05T05:58:42.914Z,23.50
2023-02-05T06:01:46.358Z,25.70
2023-02-05T06:04:49.831Z,25.60
2023-02-05T06:07:53.116Z,28.10
2023-02-05T06:10:56.808Z,29.90
2023-02-05T06:14:00.117Z,26.60
2023-02-05T06:17:03.364Z,32.20
2023-02-05T06:20:06.940Z,29.10
2023-02-05T06:23:10.593Z,33.80
2023-02-05T06:26:13.986Z,32.50
2023-02-05T06:29:17.309Z,35.50
2023-02-05T06:32:21.709Z,31.20
2023-02-05T06:35:24.979Z,31.20
2023-02-05T06:38:28.275Z,25.70
2023-02-05T06:41:31.510Z,25.20
2023-02-05T06:44:34.823Z,23.40
2023-02-05T06:47:38.507Z,21.70
2023-02-05T06:50:41.890Z,18.90
2023-02-05T06:53:45.130Z,15.80
2023-02-05T06:56:48.406Z,19.20
2023-02-05T06:59:51.588Z,21.70
2023-02-05T07:02:55.302Z,19.20
2023-02-05T07:06:06.203Z,19.40
2023-02-05T07:09:10.262Z,23.90
2023-02-05T07:12:13.537Z,25.60
2023-02-05T07:15:16.897Z,25.20
2023-02-05T07:18:20.066Z,27.30
2023-02-05T07:21:23.250Z,25.80
2023-02-05T07:24:26.580Z,30.70
2023-02-05T07:27:30.999Z,32.60
2023-02-05T07:30:37.604Z,32.10
2023-02-05T07:33:41.526Z,29.80
2023-02-05T07:36:44.765Z,29.20
2023-02-05T07:39:48.012Z,31.60
2023-02-05T07:42:51.237Z,51.30
2023-02-05T07:45:58.555Z,64.50
2023-02-05T07:49:01.783Z,76.00
2023-02-05T07:52:05.210Z,60.40
2023-02-05T07:55:09.223Z,50.80
2023-02-05T07:58:12.700Z,49.00
2023-02-05T08:01:16.110Z,76.20
2023-02-05T08:04:22.860Z,41.10
2023-02-05T08:07:26.271Z,53.20
2023-02-05T08:10:29.713Z,66.80
2023-02-05T08:13:34.037Z,32.90
2023-02-05T08:16:37.433Z,20.10
2023-02-05T08:19:42.153Z,23.20
2023-02-05T08:22:45.481Z,18.70
2023-02-05T08:25:48.852Z,38.00
2023-02-05T08:28:52.071Z,34.50
2023-02-05T08:31:56.157Z,40.30
2023-02-05T08:34:59.478Z,25.40
2023-02-05T08:38:02.759Z,16.70
2023-02-05T08:41:12.646Z,19.70
2023-02-05T08:44:16.263Z,25.30
2023-02-05T08:47:21.372Z,52.50
2023-02-05T08:50:24.726Z,20.50
2023-02-05T08:53:28.004Z,22.00
2023-02-05T08:56:31.959Z,19.30
2023-02-05T08:59:35.681Z,16.00
2023-02-05T09:02:40.572Z,21.40
2023-02-05T09:05:44.095Z,21.00
2023-02-05T09:08:47.570Z,15.70
2023-02-05T09:11:50.915Z,20.20
2023-02-05T09:14:54.227Z,21.00
2023-02-05T09:17:57.639Z,17.40
2023-02-05T09:21:06.328Z,11.90
2023-02-05T09:24:09.784Z,8.80
2023-02-05T09:27:14.458Z,8.80
2023-02-05T09:30:17.845Z,7.80
2023-02-05T09:33:21.047Z,5.40
2023-02-05T09:36:24.276Z,7.80
2023-02-05T09:40:08.574Z,8.60
2023-02-05T09:43:01.595Z,8.60
2023-02-05T09:46:26.055Z,15.40
2023-02-05T09:49:29.356Z,9.50
2023-02-05T09:52:42.501Z,8.40
2023-02-05T09:55:47.633Z,11.40
2023-02-05T09:58:54.681Z,6.40
2023-02-05T10:02:17.717Z,8.80
2023-02-05T10:05:25.009Z,8.00
2023-02-05T10:09:02.501Z,9.60
2023-02-05T10:12:36.836Z,10.10
2023-02-05T10:16:02.660Z,7.70
2023-02-05T10:19:38.054Z,5.50
2023-02-05T10:22:58.118Z,10.50
2023-02-05T10:26:09.886Z,8.90
2023-02-05T10:29:34.212Z,13.70
2023-02-05T10:32:49.594Z,18.10
2023-02-05T10:36:06.778Z,14.60
2023-02-05T10:39:16.756Z,14.90
2023-02-05T10:42:36.374Z,9.40
2023-02-05T10:45:39.908Z,8.80
2023-02-05T10:48:59.064Z,11.40
2023-02-05T10:52:03.639Z,11.60
2023-02-05T10:55:13.144Z,22.70
2023-02-05T10:58:37.927Z,21.20
2023-02-05T11:01:41.753Z,16.60
2023-02-05T11:04:56.789Z,9.60
2023-02-05T11:08:00.180Z,14.40
2023-02-05T11:11:04.982Z,16.20
2023-02-05T11:14:20.724Z,13.70
2023-02-05T11:17:37.262Z,11.90
2023-02-05T11:20:40.946Z,7.40
2023-02-05T11:23:55.579Z,8.50
2023-02-05T11:27:28.355Z,8.80
2023-02-05T11:30:53.124Z,12.70
2023-02-05T11:34:09.111Z,14.80
2023-02-05T11:37:18.605Z,13.60
2023-02-05T11:40:28.911Z,10.10
2023-02-05T11:43:39.710Z,14.80
2023-02-05T11:46:45.575Z,10.90
2023-02-05T11:49:52.080Z,13.70
2023-02-05T11:53:05.895Z,15.70
2023-02-05T11:56:21.324Z,12.50
2023-02-05T11:59:25.537Z,11.00
2023-02-05T12:02:30.956Z,8.60
2023-02-05T12:05:40.876Z,10.00
2023-02-05T12:08:53.972Z,8.80
2023-02-05T12:12:18.407Z,11.80
2023-02-05T12:15:21.705Z,9.00
2023-02-05T12:18:38.267Z,6.70
2023-02-05T12:21:47.153Z,33.80
2023-02-05T12:25:13.919Z,19.20
2023-02-05T12:28:38.556Z,8.80
2023-02-05T12:31:54.024Z,16.50
2023-02-05T12:35:18.580Z,26.70
2023-02-05T12:38:40.973Z,19.40
2023-02-05T12:42:07.678Z,24.20
2023-02-05T12:45:33.744Z,13.30
2023-02-05T12:48:52.540Z,11.70
2023-02-05T12:52:20.998Z,19.60
2023-02-05T12:55:43.343Z,17.50
2023-02-05T13:01:55.486Z,12.80
2023-02-05T13:05:16.636Z,14.50
2023-02-05T13:08:35.091Z,14.20
2023-02-05T13:11:49.203Z,10.20
2023-02-05T13:15:14.240Z,10.40
2023-02-05T13:18:24.460Z,16.80
2023-02-05T13:21:46.916Z,11.10
2023-02-05T13:25:13.071Z,8.40
2023-02-05T13:28:38.072Z,6.90
2023-02-05T13:31:48.601Z,14.70
2023-02-05T13:34:54.900Z,27.80
2023-02-05T13:38:27.650Z,18.70
2023-02-05T13:41:58.647Z,13.00
2023-02-05T13:45:23.071Z,7.80
2023-02-05T13:48:44.791Z,7.80
2023-02-05T13:51:54.760Z,8.60
2023-02-05T13:55:35.735Z,7.00
2023-02-05T13:58:50.183Z,7.50
2023-02-05T14:02:03.694Z,6.90
2023-02-05T14:05:13.913Z,7.40
2023-02-05T14:08:27.979Z,9.10
2023-02-05T14:11:53.251Z,7.10
2023-02-05T14:15:25.459Z,6.00
2023-02-05T14:18:41.079Z,6.00
2023-02-05T14:21:44.422Z,6.00
2023-02-05T14:24:50.247Z,10.40
2023-02-05T14:27:55.628Z,7.10
2023-02-05T14:31:00.232Z,7.60
2023-02-05T14:34:28.016Z,10.50
2023-02-05T14:37:41.025Z,11.00
2023-02-05T14:40:44.471Z,9.40
2023-02-05T14:44:12.979Z,9.10
2023-02-05T14:47:20.858Z,13.80
2023-02-05T14:50:34.372Z,9.50
2023-02-05T14:53:39.685Z,11.90
2023-02-05T14:57:04.788Z,12.40
2023-02-05T15:00:24.197Z,11.20
2023-02-05T15:03:36.713Z,10.60
2023-02-05T15:06:42.990Z,20.90
2023-02-05T15:10:17.611Z,14.40
2023-02-05T15:13:44.727Z,10.00
2023-02-05T15:17:06.014Z,8.70
2023-02-05T15:20:20.397Z,6.30
2023-02-05T15:23:41.355Z,6.80
2023-02-05T15:26:50.383Z,8.50
2023-02-05T15:29:57.897Z,7.70
2023-02-05T15:33:08.352Z,7.50
2023-02-05T15:36:20.134Z,8.40
2023-02-05T15:39:31.691Z,7.20
2023-02-05T15:42:42.543Z,11.90
2023-02-05T15:46:07.206Z,11.90
2023-02-05T15:49:13.216Z,18.90
2023-02-05T15:52:24.118Z,14.20
2023-02-05T15:55:31.140Z,9.40
2023-02-05T15:58:35.021Z,11.20
2023-02-05T16:01:46.964Z,14.30
2023-02-05T16:05:18.231Z,13.20
2023-02-05T16:08:23.556Z,13.30
2023-02-05T16:11:34.912Z,14.00
2023-02-05T16:14:38.260Z,16.10
2023-02-05T16:17:48.390Z,13.30
2023-02-05T16:20:56.033Z,13.80
2023-02-05T16:24:03.200Z,15.30
2023-02-05T16:27:11.055Z,12.80
2023-02-05T16:30:33.242Z,13.20
2023-02-05T16:33:41.069Z,12.50
2023-02-05T16:36:48.612Z,18.80
2023-02-05T16:39:55.195Z,20.30
2023-02-05T16:42:58.851Z,20.20
2023-02-05T16:46:08.521Z,40.40
2023-02-05T16:49:40.326Z,29.40
2023-02-05T16:52:43.964Z,30.80
2023-02-05T17:00:18.393Z,11.80
2023-02-05T17:03:37.710Z,20.30
2023-02-05T17:06:41.062Z,18.80
2023-02-05T17:09:44.854Z,19.00
2023-02-05T17:12:53.419Z,29.20
2023-02-05T17:15:56.924Z,30.10
2023-02-05T17:19:23.144Z,28.40
2023-02-05T17:22:27.653Z,33.40
2023-02-05T17:25:57.885Z,38.40
2023-02-05T17:29:04.560Z,39.40
2023-02-05T17:32:11.201Z,38.40
2023-02-05T17:35:16.449Z,36.60
2023-02-05T17:38:20.659Z,33.50
2023-02-05T17:41:45.131Z,32.00
2023-02-05T17:44:49.455Z,28.90
2023-02-05T17:47:53.310Z,25.40
2023-02-05T17:50:59.496Z,21.60
2023-02-05T17:54:02.927Z,23.30
2023-02-05T17:57:22.042Z,25.80
2023-02-05T18:00:28.098Z,19.50
2023-02-05T18:03:31.560Z,31.60
2023-02-05T18:06:36.780Z,47.60
2023-02-05T18:09:40.108Z,45.00
2023-02-05T18:12:43.546Z,45.20
2023-02-05T18:15:50.202Z,37.10
2023-02-05T18:18:53.572Z,39.90
2023-02-05T18:21:57.136Z,27.90
2023-02-05T18:25:00.697Z,20.50
2023-02-05T18:28:04.077Z,23.10
2023-02-05T18:31:09.585Z,24.60
2023-02-05T18:34:13.010Z,36.10
2023-02-05T18:37:16.772Z,38.60
2023-02-05T18:40:20.418Z,28.80
2023-02-05T18:43:23.723Z,47.50
2023-02-05T18:46:27.104Z,44.70
2023-02-05T18:49:30.427Z,38.90
2023-02-05T18:52:34.711Z,34.30
2023-02-05T18:55:37.916Z,40.10
2023-02-05T18:58:42.680Z,35.10
2023-02-05T19:01:45.962Z,27.70
2023-02-05T19:04:55.689Z,28.10
2023-02-05T19:07:58.988Z,20.60
2023-02-05T19:11:09.684Z,31.10
2023-02-05T19:14:15.449Z,26.60
2023-02-05T19:17:19.046Z,36.40
2023-02-05T19:20:22.236Z,33.50
2023-02-05T19:23:25.451Z,43.40
2023-02-05T19:26:29.413Z,43.90
2023-02-05T19:29:38.229Z,43.20
2023-02-05T19:32:41.525Z,43.70
2023-02-05T19:35:44.914Z,36.20
2023-02-05T19:38:48.409Z,44.10
2023-02-05T19:41:52.872Z,38.90
2023-02-05T19:44:56.180Z,49.00
2023-02-05T19:47:59.420Z,63.20
2023-02-05T19:51:06.926Z,52.10
2023-02-05T19:54:10.212Z,46.80
2023-02-05T19:57:13.471Z,44.40
2023-02-05T20:00:17.516Z,58.70
2023-02-05T20:03:20.743Z,65.70
2023-02-05T20:06:27.243Z,77.40
2023-02-05T20:09:31.994Z,67.00
2023-02-05T20:12:35.497Z,61.30
2023-02-05T20:15:39.666Z,58.80
2023-02-05T20:18:43.513Z,55.40
2023-02-05T20:21:47.774Z,60.60
2023-02-05T20:24:51.010Z,54.70
2023-02-05T20:27:54.240Z,60.00
2023-02-05T20:31:16.362Z,58.90
2023-02-05T20:34:22.659Z,68.90
2023-02-05T20:37:26.038Z,68.80
2023-02-05T20:40:29.390Z,75.40
2023-02-05T20:43:33.030Z,68.00
2023-02-05T20:46:36.753Z,59.40
2023-02-05T20:49:41.880Z,66.90
2023-02-05T20:52:45.271Z,64.70
2023-02-05T20:55:51.197Z,70.70
2023-02-05T20:58:55.291Z,71.00
2023-02-05T21:01:59.372Z,69.70
2023-02-05T21:05:02.725Z,60.20
2023-02-05T21:08:06.068Z,87.90
2023-02-05T21:11:10.011Z,59.30
2023-02-05T21:14:13.609Z,49.50
2023-02-05T21:17:16.984Z,81.70
2023-02-05T21:20:20.269Z,97.20
2023-02-05T21:23:23.711Z,68.20
2023-02-05T21:26:36.579Z,45.40
2023-02-05T21:29:39.850Z,64.80
2023-02-05T21:32:43.825Z,56.70
2023-02-05T21:35:47.148Z,45.30
2023-02-05T21:38:50.518Z,48.70
2023-02-05T21:41:54.413Z,50.50
2023-02-05T21:44:57.888Z,51.90
2023-02-05T21:48:11.396Z,51.50
2023-02-05T21:51:15.974Z,57.10
2023-02-05T21:54:25.435Z,82.90
2023-02-05T21:57:29.200Z,94.40
2023-02-05T22:00:32.711Z,90.70
2023-02-05T22:03:36.146Z,87.30
2023-02-05T22:06:42.632Z,82.40
2023-02-05T22:09:46.018Z,86.20
2023-02-05T22:12:49.332Z,80.10
2023-02-05T22:16:02.282Z,87.60
2023-02-05T22:19:06.358Z,81.50
2023-02-05T22:22:10.035Z,74.80
2023-02-05T22:25:13.404Z,71.50
2023-02-05T22:28:17.120Z,74.80
2023-02-05T22:31:21.504Z,71.70
2023-02-05T22:34:24.868Z,73.20
2023-02-05T22:37:28.137Z,63.30
2023-02-05T22:40:31.404Z,74.10
2023-02-05T22:43:35.350Z,71.50
2023-02-05T22:46:44.083Z,71.70
2023-02-05T22:49:47.415Z,65.80
2023-02-05T22:52:50.892Z,68.70
2023-02-05T22:55:54.182Z,59.20
2023-02-05T22:58:57.535Z,56.00
2023-02-05T23:02:09.367Z,53.10
2023-02-05T23:05:12.547Z,56.60
2023-02-05T23:08:24.676Z,48.10
2023-02-05T23:11:40.000Z,42.20
2023-02-05T23:14:43.592Z,43.40
2023-02-05T23:17:46.884Z,42.90
2023-02-05T23:20:50.193Z,41.00
2023-02-05T23:23:53.558Z,40.70
2023-02-05T23:26:56.895Z,38.20
2023-02-05T23:30:00.407Z,47.80
2023-02-05T23:33:03.741Z,27.30
2023-02-05T23:36:08.924Z,25.80
2023-02-05T23:39:12.650Z,27.80
2023-02-05T23:42:16.082Z,22.60
2023-02-05T23:45:19.667Z,22.60
2023-02-05T23:48:23.161Z,25.00
2023-02-05T23:51:26.485Z,22.10
2023-02-05T23:54:29.839Z,24.20
2023-02-05T23:57:33.094Z,21.40
